EKKA

Karup Airport

Karup, Denmark
METAR EKKA 170850Z AUTO 14007KT 100V170 9000NDV OVC009/// 05/04 Q1039
Observed Flight Rules
Nov-17 @ 08:50 UTC (31 minutes ago)
Wind Clouds
140° at 7 knots
  • Overcast at 900' AGL
Temperatures Readings
Current 5°C / 41°F
Dewpoint 4°C / 39°F
Humidity 93%
Altimeter 30.68" Hg
Pressure 1039 hPa
Elevation 52
METAR EKKA 170850Z AUTO 14007KT 100V170 9000NDV OVC009/// 05/04 Q1039
Observed Flight Rules
Nov-17 @ 08:50 UTC
(31 minutes ago)
Wind
140° at 7 knots
Clouds
  • Overcast at 900' AGL
Temperature Dewpoint
5°C / 41°F 4°C / 39°F
Humidity Altimeter Pressure
93% 30.68" Hg 1039 hPa